sensor_id;sensor_type;location;lat;lon;timestamp;P1;durP1;ratioP1;P2;durP2;ratioP2
68140;SDS011;54941;52.220;104.306;2023-04-25T00:01:11;3.90;;;2.72;;
68140;SDS011;54941;52.220;104.306;2023-04-25T00:03:37;3.60;;;2.50;;
68140;SDS011;54941;52.220;104.306;2023-04-25T00:06:05;6.38;;;2.58;;
68140;SDS011;54941;52.220;104.306;2023-04-25T00:08:32;5.80;;;2.80;;
68140;SDS011;54941;52.220;104.306;2023-04-25T00:11:00;6.57;;;3.00;;
68140;SDS011;54941;52.220;104.306;2023-04-25T00:13:27;3.03;;;2.33;;
68140;SDS011;54941;52.220;104.306;2023-04-25T00:15:53;3.60;;;2.67;;
68140;SDS011;54941;52.220;104.306;2023-04-25T00:18:20;3.55;;;2.40;;
68140;SDS011;54941;52.220;104.306;2023-04-25T00:20:46;3.97;;;2.78;;
68140;SDS011;54941;52.220;104.306;2023-04-25T00:23:14;3.58;;;2.45;;
68140;SDS011;54941;52.220;104.306;2023-04-25T00:25:41;4.65;;;2.78;;
68140;SDS011;54941;52.220;104.306;2023-04-25T00:28:07;5.10;;;2.40;;
68140;SDS011;54941;52.220;104.306;2023-04-25T00:30:33;4.40;;;2.50;;
68140;SDS011;54941;52.220;104.306;2023-04-25T00:33:00;3.28;;;2.53;;
68140;SDS011;54941;52.220;104.306;2023-04-25T00:35:26;4.35;;;2.60;;
68140;SDS011;54941;52.220;104.306;2023-04-25T00:37:53;4.00;;;2.80;;
68140;SDS011;54941;52.220;104.306;2023-04-25T00:40:21;4.13;;;2.80;;
68140;SDS011;54941;52.220;104.306;2023-04-25T00:42:48;4.25;;;2.83;;
68140;SDS011;54941;52.220;104.306;2023-04-25T00:45:17;4.45;;;2.40;;
68140;SDS011;54941;52.220;104.306;2023-04-25T00:47:43;2.88;;;2.13;;
68140;SDS011;54941;52.220;104.306;2023-04-25T00:50:11;5.75;;;2.78;;
68140;SDS011;54941;52.220;104.306;2023-04-25T00:52:39;4.13;;;2.50;;
68140;SDS011;54941;52.220;104.306;2023-04-25T00:55:08;3.53;;;2.45;;
68140;SDS011;54941;52.220;104.306;2023-04-25T00:57:37;4.93;;;2.65;;
68140;SDS011;54941;52.220;104.306;2023-04-25T01:00:05;3.70;;;2.35;;
68140;SDS011;54941;52.220;104.306;2023-04-25T01:02:33;3.67;;;2.40;;
68140;SDS011;54941;52.220;104.306;2023-04-25T01:05:01;4.30;;;2.60;;
68140;SDS011;54941;52.220;104.306;2023-04-25T01:07:31;3.40;;;2.40;;
68140;SDS011;54941;52.220;104.306;2023-04-25T01:09:57;3.53;;;2.42;;
68140;SDS011;54941;52.220;104.306;2023-04-25T01:12:23;4.53;;;2.70;;
68140;SDS011;54941;52.220;104.306;2023-04-25T01:14:51;3.88;;;2.30;;
68140;SDS011;54941;52.220;104.306;2023-04-25T01:17:18;4.45;;;2.53;;
68140;SDS011;54941;52.220;104.306;2023-04-25T01:19:45;4.05;;;2.13;;
68140;SDS011;54941;52.220;104.306;2023-04-25T01:22:13;4.03;;;3.08;;
68140;SDS011;54941;52.220;104.306;2023-04-25T01:24:39;3.35;;;2.45;;
68140;SDS011;54941;52.220;104.306;2023-04-25T01:27:06;3.70;;;2.17;;
68140;SDS011;54941;52.220;104.306;2023-04-25T01:29:34;4.53;;;2.60;;
68140;SDS011;54941;52.220;104.306;2023-04-25T01:32:01;3.78;;;2.95;;
68140;SDS011;54941;52.220;104.306;2023-04-25T01:34:28;3.95;;;2.53;;
68140;SDS011;54941;52.220;104.306;2023-04-25T01:36:54;3.40;;;2.75;;
68140;SDS011;54941;52.220;104.306;2023-04-25T01:39:22;4.05;;;2.85;;
68140;SDS011;54941;52.220;104.306;2023-04-25T01:41:49;5.43;;;2.78;;
68140;SDS011;54941;52.220;104.306;2023-04-25T01:44:15;4.28;;;2.60;;
68140;SDS011;54941;52.220;104.306;2023-04-25T01:46:41;4.03;;;2.60;;
68140;SDS011;54941;52.220;104.306;2023-04-25T01:49:08;4.70;;;2.72;;
68140;SDS011;54941;52.220;104.306;2023-04-25T01:51:34;3.85;;;2.40;;
68140;SDS011;54941;52.220;104.306;2023-04-25T01:54:00;5.30;;;2.50;;
68140;SDS011;54941;52.220;104.306;2023-04-25T01:56:31;3.75;;;2.22;;
68140;SDS011;54941;52.220;104.306;2023-04-25T01:58:58;3.85;;;2.45;;
68140;SDS011;54941;52.220;104.306;2023-04-25T02:01:24;4.32;;;2.85;;
68140;SDS011;54941;52.220;104.306;2023-04-25T02:03:51;3.60;;;2.47;;
68140;SDS011;54941;52.220;104.306;2023-04-25T02:06:17;4.35;;;2.28;;
68140;SDS011;54941;52.220;104.306;2023-04-25T02:08:44;4.85;;;2.53;;
68140;SDS011;54941;52.220;104.306;2023-04-25T02:11:10;3.63;;;2.20;;
68140;SDS011;54941;52.220;104.306;2023-04-25T02:13:38;4.95;;;2.45;;
68140;SDS011;54941;52.220;104.306;2023-04-25T02:16:05;3.47;;;2.35;;
68140;SDS011;54941;52.220;104.306;2023-04-25T02:18:31;3.50;;;2.10;;
68140;SDS011;54941;52.220;104.306;2023-04-25T02:20:58;3.92;;;2.38;;
68140;SDS011;54941;52.220;104.306;2023-04-25T02:23:24;2.58;;;1.83;;
68140;SDS011;54941;52.220;104.306;2023-04-25T02:25:51;4.22;;;2.40;;
68140;SDS011;54941;52.220;104.306;2023-04-25T02:28:18;3.60;;;2.15;;
68140;SDS011;54941;52.220;104.306;2023-04-25T02:30:46;3.15;;;2.22;;
68140;SDS011;54941;52.220;104.306;2023-04-25T02:33:12;3.15;;;2.42;;
68140;SDS011;54941;52.220;104.306;2023-04-25T02:35:38;4.30;;;2.90;;
68140;SDS011;54941;52.220;104.306;2023-04-25T02:38:05;3.28;;;2.15;;
68140;SDS011;54941;52.220;104.306;2023-04-25T02:40:31;3.83;;;2.40;;
68140;SDS011;54941;52.220;104.306;2023-04-25T02:42:57;4.05;;;2.42;;
68140;SDS011;54941;52.220;104.306;2023-04-25T02:45:23;3.90;;;2.50;;
68140;SDS011;54941;52.220;104.306;2023-04-25T02:47:51;3.50;;;2.53;;
68140;SDS011;54941;52.220;104.306;2023-04-25T02:50:17;3.70;;;2.28;;
68140;SDS011;54941;52.220;104.306;2023-04-25T02:52:45;4.15;;;2.53;;
68140;SDS011;54941;52.220;104.306;2023-04-25T02:55:11;6.82;;;2.40;;
68140;SDS011;54941;52.220;104.306;2023-04-25T02:57:38;3.88;;;2.92;;
68140;SDS011;54941;52.220;104.306;2023-04-25T03:00:05;3.92;;;2.63;;
68140;SDS011;54941;52.220;104.306;2023-04-25T03:02:34;3.85;;;3.03;;
68140;SDS011;54941;52.220;104.306;2023-04-25T03:05:02;5.20;;;2.72;;
68140;SDS011;54941;52.220;104.306;2023-04-25T03:07:31;3.35;;;2.00;;
68140;SDS011;54941;52.220;104.306;2023-04-25T03:09:57;2.95;;;2.17;;
68140;SDS011;54941;52.220;104.306;2023-04-25T03:12:23;4.95;;;2.20;;
68140;SDS011;54941;52.220;104.306;2023-04-25T03:14:50;3.20;;;2.35;;
68140;SDS011;54941;52.220;104.306;2023-04-25T03:17:16;4.10;;;2.72;;
68140;SDS011;54941;52.220;104.306;2023-04-25T03:19:42;2.50;;;2.25;;
68140;SDS011;54941;52.220;104.306;2023-04-25T03:22:10;5.57;;;2.53;;
68140;SDS011;54941;52.220;104.306;2023-04-25T03:24:36;4.28;;;2.42;;
68140;SDS011;54941;52.220;104.306;2023-04-25T03:27:03;5.10;;;2.53;;
68140;SDS011;54941;52.220;104.306;2023-04-25T03:29:29;3.40;;;1.90;;
68140;SDS011;54941;52.220;104.306;2023-04-25T03:31:55;3.88;;;2.13;;
68140;SDS011;54941;52.220;104.306;2023-04-25T03:34:21;3.83;;;2.20;;
68140;SDS011;54941;52.220;104.306;2023-04-25T03:36:48;2.97;;;2.05;;
68140;SDS011;54941;52.220;104.306;2023-04-25T03:39:15;3.55;;;2.13;;
68140;SDS011;54941;52.220;104.306;2023-04-25T03:41:42;4.43;;;2.38;;
68140;SDS011;54941;52.220;104.306;2023-04-25T03:44:08;3.63;;;2.70;;
68140;SDS011;54941;52.220;104.306;2023-04-25T03:46:34;3.33;;;2.83;;
68140;SDS011;54941;52.220;104.306;2023-04-25T03:49:00;5.93;;;2.78;;
68140;SDS011;54941;52.220;104.306;2023-04-25T03:51:27;3.05;;;2.28;;
68140;SDS011;54941;52.220;104.306;2023-04-25T03:53:53;3.65;;;2.30;;
68140;SDS011;54941;52.220;104.306;2023-04-25T03:56:22;4.68;;;1.90;;
68140;SDS011;54941;52.220;104.306;2023-04-25T03:58:48;3.60;;;2.10;;
68140;SDS011;54941;52.220;104.306;2023-04-25T04:01:14;3.88;;;2.70;;
68140;SDS011;54941;52.220;104.306;2023-04-25T04:03:40;4.28;;;2.40;;
68140;SDS011;54941;52.220;104.306;2023-04-25T04:06:07;4.78;;;2.50;;
68140;SDS011;54941;52.220;104.306;2023-04-25T04:08:33;4.30;;;2.47;;
68140;SDS011;54941;52.220;104.306;2023-04-25T04:11:00;3.45;;;2.28;;
68140;SDS011;54941;52.220;104.306;2023-04-25T04:13:28;3.22;;;1.83;;
68140;SDS011;54941;52.220;104.306;2023-04-25T04:15:55;3.53;;;2.15;;
68140;SDS011;54941;52.220;104.306;2023-04-25T04:18:21;2.85;;;2.13;;
68140;SDS011;54941;52.220;104.306;2023-04-25T04:20:48;4.47;;;2.40;;
68140;SDS011;54941;52.220;104.306;2023-04-25T04:23:14;2.55;;;2.08;;
68140;SDS011;54941;52.220;104.306;2023-04-25T04:25:40;4.13;;;2.25;;
68140;SDS011;54941;52.220;104.306;2023-04-25T04:28:07;3.13;;;2.50;;
68140;SDS011;54941;52.220;104.306;2023-04-25T04:30:35;3.15;;;2.10;;
68140;SDS011;54941;52.220;104.306;2023-04-25T04:33:01;3.38;;;2.28;;
68140;SDS011;54941;52.220;104.306;2023-04-25T04:35:35;3.78;;;2.63;;
68140;SDS011;54941;52.220;104.306;2023-04-25T04:38:02;4.43;;;2.30;;
68140;SDS011;54941;52.220;104.306;2023-04-25T04:40:28;3.95;;;2.47;;
68140;SDS011;54941;52.220;104.306;2023-04-25T04:42:54;4.32;;;2.50;;
68140;SDS011;54941;52.220;104.306;2023-04-25T04:45:21;3.65;;;2.17;;
68140;SDS011;54941;52.220;104.306;2023-04-25T04:47:48;5.20;;;2.70;;
68140;SDS011;54941;52.220;104.306;2023-04-25T04:50:15;3.40;;;2.30;;
68140;SDS011;54941;52.220;104.306;2023-04-25T04:52:41;4.90;;;2.80;;
68140;SDS011;54941;52.220;104.306;2023-04-25T04:55:08;3.85;;;1.88;;
68140;SDS011;54941;52.220;104.306;2023-04-25T04:57:35;4.70;;;2.28;;
68140;SDS011;54941;52.220;104.306;2023-04-25T05:00:01;3.75;;;2.45;;
68140;SDS011;54941;52.220;104.306;2023-04-25T05:02:30;4.72;;;2.53;;
68140;SDS011;54941;52.220;104.306;2023-04-25T05:04:58;4.15;;;2.10;;
68140;SDS011;54941;52.220;104.306;2023-04-25T05:07:25;5.85;;;3.20;;
68140;SDS011;54941;52.220;104.306;2023-04-25T05:09:51;5.40;;;2.95;;
68140;SDS011;54941;52.220;104.306;2023-04-25T05:12:17;4.53;;;2.78;;
68140;SDS011;54941;52.220;104.306;2023-04-25T05:14:43;5.18;;;2.22;;
68140;SDS011;54941;52.220;104.306;2023-04-25T05:17:10;6.28;;;3.38;;
68140;SDS011;54941;52.220;104.306;2023-04-25T05:19:36;4.70;;;2.78;;
68140;SDS011;54941;52.220;104.306;2023-04-25T05:22:04;5.97;;;2.92;;
68140;SDS011;54941;52.220;104.306;2023-04-25T05:24:30;4.53;;;2.10;;
68140;SDS011;54941;52.220;104.306;2023-04-25T05:26:56;6.80;;;2.38;;
68140;SDS011;54941;52.220;104.306;2023-04-25T05:29:22;5.55;;;2.30;;
68140;SDS011;54941;52.220;104.306;2023-04-25T05:31:49;4.80;;;2.75;;
68140;SDS011;54941;52.220;104.306;2023-04-25T05:34:15;5.32;;;2.03;;
68140;SDS011;54941;52.220;104.306;2023-04-25T05:36:41;5.60;;;2.35;;
68140;SDS011;54941;52.220;104.306;2023-04-25T05:39:09;5.68;;;2.75;;
68140;SDS011;54941;52.220;104.306;2023-04-25T05:41:35;5.03;;;2.15;;
68140;SDS011;54941;52.220;104.306;2023-04-25T05:44:02;4.15;;;2.47;;
68140;SDS011;54941;52.220;104.306;2023-04-25T05:46:28;4.95;;;1.92;;
68140;SDS011;54941;52.220;104.306;2023-04-25T05:48:54;5.47;;;2.60;;
68140;SDS011;54941;52.220;104.306;2023-04-25T05:51:21;3.90;;;1.85;;
68140;SDS011;54941;52.220;104.306;2023-04-25T05:53:47;2.75;;;2.00;;
68140;SDS011;54941;52.220;104.306;2023-04-25T05:56:15;4.05;;;2.67;;
68140;SDS011;54941;52.220;104.306;2023-04-25T05:58:41;5.70;;;2.50;;
68140;SDS011;54941;52.220;104.306;2023-04-25T06:01:07;4.70;;;2.30;;
68140;SDS011;54941;52.220;104.306;2023-04-25T06:03:34;4.40;;;2.25;;
68140;SDS011;54941;52.220;104.306;2023-04-25T06:06:00;6.25;;;2.53;;
68140;SDS011;54941;52.220;104.306;2023-04-25T06:08:26;4.82;;;2.45;;
68140;SDS011;54941;52.220;104.306;2023-04-25T06:10:52;6.13;;;2.25;;
68140;SDS011;54941;52.220;104.306;2023-04-25T06:13:20;5.40;;;2.10;;
68140;SDS011;54941;52.220;104.306;2023-04-25T06:15:47;9.38;;;2.53;;
68140;SDS011;54941;52.220;104.306;2023-04-25T06:18:13;5.93;;;2.25;;
68140;SDS011;54941;52.220;104.306;2023-04-25T06:20:39;8.70;;;4.45;;
68140;SDS011;54941;52.220;104.306;2023-04-25T06:23:06;5.72;;;2.80;;
68140;SDS011;54941;52.220;104.306;2023-04-25T06:25:32;4.60;;;2.10;;
68140;SDS011;54941;52.220;104.306;2023-04-25T06:28:02;4.72;;;2.72;;
68140;SDS011;54941;52.220;104.306;2023-04-25T06:30:33;7.53;;;2.67;;
68140;SDS011;54941;52.220;104.306;2023-04-25T06:32:59;6.57;;;2.72;;
68140;SDS011;54941;52.220;104.306;2023-04-25T06:35:25;6.05;;;3.00;;
68140;SDS011;54941;52.220;104.306;2023-04-25T06:37:52;6.43;;;2.70;;
68140;SDS011;54941;52.220;104.306;2023-04-25T06:40:18;6.20;;;2.85;;
68140;SDS011;54941;52.220;104.306;2023-04-25T06:42:46;5.82;;;3.60;;
68140;SDS011;54941;52.220;104.306;2023-04-25T06:45:12;14.70;;;8.13;;
68140;SDS011;54941;52.220;104.306;2023-04-25T06:47:40;5.10;;;3.00;;
68140;SDS011;54941;52.220;104.306;2023-04-25T06:50:06;4.93;;;2.40;;
68140;SDS011;54941;52.220;104.306;2023-04-25T06:52:33;6.20;;;2.25;;
68140;SDS011;54941;52.220;104.306;2023-04-25T06:55:00;6.32;;;2.33;;
68140;SDS011;54941;52.220;104.306;2023-04-25T06:57:26;7.68;;;2.53;;
68140;SDS011;54941;52.220;104.306;2023-04-25T06:59:52;5.35;;;2.92;;
68140;SDS011;54941;52.220;104.306;2023-04-25T07:02:18;5.50;;;2.92;;
68140;SDS011;54941;52.220;104.306;2023-04-25T07:04:46;6.38;;;2.63;;
68140;SDS011;54941;52.220;104.306;2023-04-25T07:07:12;5.88;;;3.33;;
68140;SDS011;54941;52.220;104.306;2023-04-25T07:09:39;8.95;;;2.90;;
68140;SDS011;54941;52.220;104.306;2023-04-25T07:12:05;6.55;;;3.03;;
68140;SDS011;54941;52.220;104.306;2023-04-25T07:14:32;8.05;;;2.95;;
68140;SDS011;54941;52.220;104.306;2023-04-25T07:16:58;6.95;;;2.95;;
68140;SDS011;54941;52.220;104.306;2023-04-25T07:19:24;6.15;;;3.08;;
68140;SDS011;54941;52.220;104.306;2023-04-25T07:21:52;7.45;;;2.83;;
68140;SDS011;54941;52.220;104.306;2023-04-25T07:24:18;6.93;;;3.20;;
68140;SDS011;54941;52.220;104.306;2023-04-25T07:26:45;5.97;;;2.80;;
68140;SDS011;54941;52.220;104.306;2023-04-25T07:29:11;5.43;;;2.75;;
68140;SDS011;54941;52.220;104.306;2023-04-25T07:31:37;10.18;;;2.67;;
68140;SDS011;54941;52.220;104.306;2023-04-25T07:34:04;7.47;;;2.80;;
68140;SDS011;54941;52.220;104.306;2023-04-25T07:36:31;8.27;;;2.85;;
68140;SDS011;54941;52.220;104.306;2023-04-25T07:38:58;6.10;;;2.53;;
68140;SDS011;54941;52.220;104.306;2023-04-25T07:41:25;6.75;;;2.88;;
68140;SDS011;54941;52.220;104.306;2023-04-25T07:43:51;6.85;;;2.50;;
68140;SDS011;54941;52.220;104.306;2023-04-25T07:46:17;4.82;;;2.67;;
68140;SDS011;54941;52.220;104.306;2023-04-25T07:48:43;5.20;;;2.50;;
68140;SDS011;54941;52.220;104.306;2023-04-25T07:51:15;6.68;;;3.22;;
68140;SDS011;54941;52.220;104.306;2023-04-25T07:53:47;7.13;;;2.97;;
68140;SDS011;54941;52.220;104.306;2023-04-25T07:56:15;6.32;;;2.90;;
68140;SDS011;54941;52.220;104.306;2023-04-25T07:58:42;5.03;;;2.72;;
68140;SDS011;54941;52.220;104.306;2023-04-25T08:01:10;8.63;;;2.97;;
68140;SDS011;54941;52.220;104.306;2023-04-25T08:03:39;8.43;;;2.92;;
68140;SDS011;54941;52.220;104.306;2023-04-25T08:06:05;7.75;;;3.28;;
68140;SDS011;54941;52.220;104.306;2023-04-25T08:08:32;6.95;;;3.30;;
68140;SDS011;54941;52.220;104.306;2023-04-25T08:10:58;6.35;;;3.13;;
68140;SDS011;54941;52.220;104.306;2023-04-25T08:13:26;8.38;;;3.38;;
68140;SDS011;54941;52.220;104.306;2023-04-25T08:15:52;8.95;;;3.15;;
68140;SDS011;54941;52.220;104.306;2023-04-25T08:18:18;6.55;;;2.70;;
68140;SDS011;54941;52.220;104.306;2023-04-25T08:20:44;6.70;;;2.70;;
68140;SDS011;54941;52.220;104.306;2023-04-25T08:23:11;12.00;;;4.72;;
68140;SDS011;54941;52.220;104.306;2023-04-25T08:25:37;8.38;;;3.40;;
68140;SDS011;54941;52.220;104.306;2023-04-25T08:28:03;6.00;;;3.85;;
68140;SDS011;54941;52.220;104.306;2023-04-25T08:30:32;10.88;;;3.95;;
68140;SDS011;54941;52.220;104.306;2023-04-25T08:32:58;6.28;;;2.67;;
68140;SDS011;54941;52.220;104.306;2023-04-25T08:35:24;8.65;;;3.08;;
68140;SDS011;54941;52.220;104.306;2023-04-25T08:37:51;7.05;;;3.20;;
68140;SDS011;54941;52.220;104.306;2023-04-25T08:40:17;6.70;;;2.90;;
68140;SDS011;54941;52.220;104.306;2023-04-25T08:42:47;6.53;;;2.72;;
68140;SDS011;54941;52.220;104.306;2023-04-25T08:45:16;10.45;;;3.65;;
68140;SDS011;54941;52.220;104.306;2023-04-25T08:47:43;6.97;;;3.10;;
68140;SDS011;54941;52.220;104.306;2023-04-25T08:50:11;9.77;;;3.70;;
68140;SDS011;54941;52.220;104.306;2023-04-25T08:52:39;7.60;;;3.20;;
68140;SDS011;54941;52.220;104.306;2023-04-25T08:55:09;5.68;;;3.05;;
68140;SDS011;54941;52.220;104.306;2023-04-25T08:57:37;12.65;;;2.80;;
68140;SDS011;54941;52.220;104.306;2023-04-25T09:00:05;6.82;;;3.22;;
68140;SDS011;54941;52.220;104.306;2023-04-25T09:02:33;6.22;;;2.72;;
68140;SDS011;54941;52.220;104.306;2023-04-25T09:05:02;6.93;;;3.10;;
68140;SDS011;54941;52.220;104.306;2023-04-25T09:07:29;9.43;;;3.20;;
68140;SDS011;54941;52.220;104.306;2023-04-25T09:09:55;6.95;;;3.00;;
68140;SDS011;54941;52.220;104.306;2023-04-25T09:12:22;10.57;;;5.85;;
68140;SDS011;54941;52.220;104.306;2023-04-25T09:15:04;5.68;;;2.92;;
68140;SDS011;54941;52.220;104.306;2023-04-25T09:17:32;6.07;;;3.28;;
68140;SDS011;54941;52.220;104.306;2023-04-25T09:20:07;8.82;;;3.15;;
68140;SDS011;54941;52.220;104.306;2023-04-25T09:22:35;6.85;;;2.70;;
68140;SDS011;54941;52.220;104.306;2023-04-25T09:25:02;6.90;;;2.30;;
68140;SDS011;54941;52.220;104.306;2023-04-25T09:27:33;5.95;;;2.65;;
68140;SDS011;54941;52.220;104.306;2023-04-25T09:29:59;4.82;;;2.80;;
68140;SDS011;54941;52.220;104.306;2023-04-25T09:32:25;4.75;;;2.38;;
68140;SDS011;54941;52.220;104.306;2023-04-25T09:34:52;6.28;;;2.95;;
68140;SDS011;54941;52.220;104.306;2023-04-25T09:37:21;5.22;;;2.80;;
68140;SDS011;54941;52.220;104.306;2023-04-25T09:39:49;8.43;;;3.55;;
68140;SDS011;54941;52.220;104.306;2023-04-25T09:42:16;6.63;;;2.70;;
68140;SDS011;54941;52.220;104.306;2023-04-25T09:44:43;7.43;;;2.65;;
68140;SDS011;54941;52.220;104.306;2023-04-25T09:47:11;7.07;;;2.90;;
68140;SDS011;54941;52.220;104.306;2023-04-25T09:49:39;4.18;;;2.65;;
68140;SDS011;54941;52.220;104.306;2023-04-25T09:52:06;5.03;;;2.47;;
68140;SDS011;54941;52.220;104.306;2023-04-25T09:54:33;5.65;;;2.42;;
68140;SDS011;54941;52.220;104.306;2023-04-25T09:57:00;4.07;;;2.22;;
68140;SDS011;54941;52.220;104.306;2023-04-25T09:59:35;4.25;;;2.13;;
68140;SDS011;54941;52.220;104.306;2023-04-25T10:02:03;8.57;;;4.50;;
68140;SDS011;54941;52.220;104.306;2023-04-25T10:04:31;7.18;;;3.10;;
68140;SDS011;54941;52.220;104.306;2023-04-25T10:07:00;6.18;;;2.78;;
68140;SDS011;54941;52.220;104.306;2023-04-25T10:09:27;4.95;;;2.58;;
68140;SDS011;54941;52.220;104.306;2023-04-25T10:11:59;5.63;;;3.10;;
68140;SDS011;54941;52.220;104.306;2023-04-25T10:16:52;4.95;;;2.65;;
68140;SDS011;54941;52.220;104.306;2023-04-25T10:19:19;5.05;;;2.55;;
68140;SDS011;54941;52.220;104.306;2023-04-25T10:21:48;3.90;;;2.40;;
68140;SDS011;54941;52.220;104.306;2023-04-25T10:24:17;3.55;;;1.90;;
68140;SDS011;54941;52.220;104.306;2023-04-25T10:26:46;3.80;;;2.30;;
68140;SDS011;54941;52.220;104.306;2023-04-25T10:29:15;5.65;;;2.58;;
68140;SDS011;54941;52.220;104.306;2023-04-25T10:31:47;5.18;;;2.33;;
68140;SDS011;54941;52.220;104.306;2023-04-25T10:34:14;6.15;;;2.92;;
68140;SDS011;54941;52.220;104.306;2023-04-25T10:36:41;5.55;;;2.50;;
68140;SDS011;54941;52.220;104.306;2023-04-25T10:39:07;5.45;;;2.97;;
68140;SDS011;54941;52.220;104.306;2023-04-25T10:41:45;8.05;;;3.33;;
68140;SDS011;54941;52.220;104.306;2023-04-25T10:44:12;6.43;;;3.72;;
68140;SDS011;54941;52.220;104.306;2023-04-25T10:46:40;10.18;;;4.53;;
68140;SDS011;54941;52.220;104.306;2023-04-25T10:49:09;8.18;;;3.47;;
68140;SDS011;54941;52.220;104.306;2023-04-25T10:51:36;5.68;;;3.38;;
68140;SDS011;54941;52.220;104.306;2023-04-25T10:54:03;5.38;;;3.00;;
68140;SDS011;54941;52.220;104.306;2023-04-25T10:56:32;6.22;;;3.25;;
68140;SDS011;54941;52.220;104.306;2023-04-25T10:59:03;7.15;;;3.00;;
68140;SDS011;54941;52.220;104.306;2023-04-25T11:01:36;6.25;;;2.50;;
68140;SDS011;54941;52.220;104.306;2023-04-25T11:04:04;5.90;;;2.20;;
68140;SDS011;54941;52.220;104.306;2023-04-25T11:06:32;6.30;;;2.15;;
68140;SDS011;54941;52.220;104.306;2023-04-25T11:09:12;4.32;;;2.63;;
68140;SDS011;54941;52.220;104.306;2023-04-25T11:11:39;5.78;;;2.45;;
68140;SDS011;54941;52.220;104.306;2023-04-25T11:14:06;6.85;;;2.40;;
68140;SDS011;54941;52.220;104.306;2023-04-25T11:16:33;4.47;;;2.53;;
68140;SDS011;54941;52.220;104.306;2023-04-25T11:19:00;5.75;;;2.75;;
68140;SDS011;54941;52.220;104.306;2023-04-25T11:21:26;4.32;;;2.20;;
68140;SDS011;54941;52.220;104.306;2023-04-25T11:23:52;5.45;;;2.65;;
68140;SDS011;54941;52.220;104.306;2023-04-25T11:26:19;5.35;;;2.42;;
68140;SDS011;54941;52.220;104.306;2023-04-25T11:28:46;5.43;;;2.67;;
68140;SDS011;54941;52.220;104.306;2023-04-25T11:31:15;5.50;;;2.47;;
68140;SDS011;54941;52.220;104.306;2023-04-25T11:33:42;5.53;;;2.70;;
68140;SDS011;54941;52.220;104.306;2023-04-25T11:36:09;7.47;;;2.65;;
68140;SDS011;54941;52.220;104.306;2023-04-25T11:38:35;4.28;;;2.03;;
68140;SDS011;54941;52.220;104.306;2023-04-25T11:41:01;5.55;;;2.88;;
68140;SDS011;54941;52.220;104.306;2023-04-25T11:43:28;4.25;;;2.33;;
68140;SDS011;54941;52.220;104.306;2023-04-25T11:45:54;4.85;;;2.30;;
68140;SDS011;54941;52.220;104.306;2023-04-25T11:48:21;5.05;;;2.85;;
68140;SDS011;54941;52.220;104.306;2023-04-25T11:50:48;5.95;;;3.70;;
68140;SDS011;54941;52.220;104.306;2023-04-25T11:53:14;6.40;;;2.90;;
68140;SDS011;54941;52.220;104.306;2023-04-25T11:55:45;4.45;;;2.67;;
68140;SDS011;54941;52.220;104.306;2023-04-25T11:58:12;4.93;;;2.80;;
68140;SDS011;54941;52.220;104.306;2023-04-25T12:00:41;5.57;;;3.10;;
68140;SDS011;54941;52.220;104.306;2023-04-25T12:03:08;5.47;;;2.50;;
68140;SDS011;54941;52.220;104.306;2023-04-25T12:05:35;5.93;;;2.65;;
68140;SDS011;54941;52.220;104.306;2023-04-25T12:08:12;6.72;;;2.90;;
68140;SDS011;54941;52.220;104.306;2023-04-25T12:10:39;5.20;;;2.20;;
68140;SDS011;54941;52.220;104.306;2023-04-25T12:13:19;6.68;;;2.95;;
68140;SDS011;54941;52.220;104.306;2023-04-25T12:15:47;5.18;;;2.55;;
68140;SDS011;54941;52.220;104.306;2023-04-25T12:18:13;5.30;;;2.58;;
68140;SDS011;54941;52.220;104.306;2023-04-25T12:20:41;5.32;;;2.53;;
68140;SDS011;54941;52.220;104.306;2023-04-25T12:23:07;4.75;;;2.72;;
68140;SDS011;54941;52.220;104.306;2023-04-25T12:25:35;6.45;;;2.85;;
68140;SDS011;54941;52.220;104.306;2023-04-25T12:28:10;6.95;;;2.78;;
68140;SDS011;54941;52.220;104.306;2023-04-25T12:30:51;6.47;;;3.00;;
68140;SDS011;54941;52.220;104.306;2023-04-25T12:33:18;7.22;;;3.22;;
68140;SDS011;54941;52.220;104.306;2023-04-25T12:35:45;4.47;;;2.80;;
68140;SDS011;54941;52.220;104.306;2023-04-25T12:38:11;9.05;;;3.53;;
68140;SDS011;54941;52.220;104.306;2023-04-25T12:40:47;8.75;;;3.63;;
68140;SDS011;54941;52.220;104.306;2023-04-25T12:43:13;23.10;;;6.38;;
68140;SDS011;54941;52.220;104.306;2023-04-25T12:45:39;17.38;;;4.45;;
68140;SDS011;54941;52.220;104.306;2023-04-25T12:48:06;17.25;;;4.40;;
68140;SDS011;54941;52.220;104.306;2023-04-25T12:50:32;19.27;;;5.05;;
68140;SDS011;54941;52.220;104.306;2023-04-25T12:52:59;17.25;;;4.80;;
68140;SDS011;54941;52.220;104.306;2023-04-25T12:55:25;17.10;;;5.45;;
68140;SDS011;54941;52.220;104.306;2023-04-25T12:57:53;32.00;;;7.85;;
68140;SDS011;54941;52.220;104.306;2023-04-25T13:00:19;39.63;;;7.28;;
68140;SDS011;54941;52.220;104.306;2023-04-25T13:02:46;33.25;;;10.95;;
68140;SDS011;54941;52.220;104.306;2023-04-25T13:05:12;33.78;;;7.30;;
68140;SDS011;54941;52.220;104.306;2023-04-25T13:07:38;35.15;;;11.98;;
68140;SDS011;54941;52.220;104.306;2023-04-25T13:10:05;21.73;;;6.85;;
68140;SDS011;54941;52.220;104.306;2023-04-25T13:12:32;13.32;;;4.55;;
68140;SDS011;54941;52.220;104.306;2023-04-25T13:15:00;12.77;;;4.05;;
68140;SDS011;54941;52.220;104.306;2023-04-25T13:17:27;9.55;;;3.45;;
68140;SDS011;54941;52.220;104.306;2023-04-25T13:19:53;7.32;;;3.47;;
68140;SDS011;54941;52.220;104.306;2023-04-25T13:22:19;8.50;;;3.45;;
68140;SDS011;54941;52.220;104.306;2023-04-25T13:24:46;6.60;;;3.53;;
68140;SDS011;54941;52.220;104.306;2023-04-25T13:27:12;8.98;;;4.43;;
68140;SDS011;54941;52.220;104.306;2023-04-25T13:29:39;12.50;;;6.80;;
68140;SDS011;54941;52.220;104.306;2023-04-25T13:32:08;23.58;;;13.55;;
68140;SDS011;54941;52.220;104.306;2023-04-25T13:34:35;22.70;;;13.23;;
68140;SDS011;54941;52.220;104.306;2023-04-25T13:37:01;20.45;;;7.85;;
68140;SDS011;54941;52.220;104.306;2023-04-25T13:39:27;13.25;;;7.47;;
68140;SDS011;54941;52.220;104.306;2023-04-25T13:41:54;15.00;;;6.60;;
68140;SDS011;54941;52.220;104.306;2023-04-25T13:44:20;12.80;;;6.82;;
68140;SDS011;54941;52.220;104.306;2023-04-25T13:46:46;10.77;;;6.07;;
68140;SDS011;54941;52.220;104.306;2023-04-25T13:49:14;13.60;;;5.63;;
68140;SDS011;54941;52.220;104.306;2023-04-25T13:51:41;13.15;;;5.97;;
68140;SDS011;54941;52.220;104.306;2023-04-25T13:54:07;14.80;;;6.10;;
68140;SDS011;54941;52.220;104.306;2023-04-25T13:56:34;9.07;;;4.63;;
68140;SDS011;54941;52.220;104.306;2023-04-25T13:59:00;9.18;;;3.72;;
68140;SDS011;54941;52.220;104.306;2023-04-25T14:01:26;7.45;;;4.20;;
68140;SDS011;54941;52.220;104.306;2023-04-25T14:03:53;7.95;;;4.95;;
68140;SDS011;54941;52.220;104.306;2023-04-25T14:06:21;13.25;;;7.70;;
68140;SDS011;54941;52.220;104.306;2023-04-25T14:08:49;13.43;;;4.97;;
68140;SDS011;54941;52.220;104.306;2023-04-25T14:11:16;11.30;;;4.28;;
68140;SDS011;54941;52.220;104.306;2023-04-25T14:13:42;13.90;;;4.68;;
68140;SDS011;54941;52.220;104.306;2023-04-25T14:16:08;14.15;;;4.47;;
68140;SDS011;54941;52.220;104.306;2023-04-25T14:18:35;11.77;;;4.35;;
68140;SDS011;54941;52.220;104.306;2023-04-25T14:21:01;9.90;;;4.50;;
68140;SDS011;54941;52.220;104.306;2023-04-25T14:23:29;14.18;;;5.80;;